Time,TemperatureF,DewpointF,PressureIn,WindDirection,WindDirectionDegrees,WindSpeedMPH,WindSpeedGustMPH,Humidity,HourlyPrecipIn,Conditions,Clouds,dailyrainin,SoftwareType,DateUTC
2013-04-24 00:02:00,46.0,5.0,-100.00,NNE,27,4.0,13.0,18,-99.99,,,-99.99,,2013-04-24 07:02:00,
2013-04-24 00:11:00,46.0,5.0,-100.00,NNE,20,4.0,11.0,18,-99.99,,,-99.99,,2013-04-24 07:11:00,
2013-04-24 00:21:00,46.0,5.0,-100.00,NNE,20,4.0,11.0,18,-99.99,,,-99.99,,2013-04-24 07:21:00,
2013-04-24 00:32:00,46.0,1.0,-100.00,North,11,4.0,14.0,15,-99.99,,,-99.99,,2013-04-24 07:32:00,
2013-04-24 00:52:00,46.0,1.0,-100.00,NE,44,5.0,13.0,15,-99.99,,,-99.99,,2013-04-24 07:52:00,
2013-04-24 01:01:00,46.0,1.0,-100.00,NE,44,5.0,13.0,15,-99.99,,,-99.99,,2013-04-24 08:01:00,
2013-04-24 01:11:00,45.0,0.0,-100.00,NNE,28,2.0,8.0,15,-99.99,,,-99.99,,2013-04-24 08:11:00,
2013-04-24 01:33:00,45.0,9.0,-100.00,ESE,104,2.0,7.0,22,-99.99,,,-99.99,,2013-04-24 08:33:00,
2013-04-24 01:52:00,43.0,5.0,-100.00,South,185,2.0,10.0,20,-99.99,,,-99.99,,2013-04-24 08:52:00,
2013-04-24 02:01:00,43.0,5.0,-100.00,South,185,2.0,10.0,20,-99.99,,,-99.99,,2013-04-24 09:01:00,
2013-04-24 02:11:00,42.0,6.0,-100.00,WNW,289,0.0,4.0,22,-99.99,,,-99.99,,2013-04-24 09:11:00,
2013-04-24 02:33:00,44.0,-1.0,-100.00,ENE,75,1.0,7.0,15,-99.99,,,-99.99,,2013-04-24 09:33:00,
2013-04-24 02:53:00,42.0,2.0,-100.00,SE,134,1.0,4.0,18,-99.99,,,-99.99,,2013-04-24 09:53:00,
2013-04-24 03:02:00,42.0,2.0,-100.00,SE,134,1.0,4.0,18,-99.99,,,-99.99,,2013-04-24 10:02:00,
2013-04-24 03:12:00,44.0,-2.0,-100.00,East,97,3.0,11.0,14,-99.99,,,-99.99,,2013-04-24 10:12:00,
2013-04-24 03:22:00,44.0,-2.0,-100.00,East,97,3.0,11.0,14,-99.99,,,-99.99,,2013-04-24 10:22:00,
2013-04-24 03:32:00,44.0,-2.0,-100.00,NNE,30,4.0,12.0,14,-99.99,,,-99.99,,2013-04-24 10:32:00,
2013-04-24 03:53:00,43.0,-2.0,-100.00,NE,37,2.0,9.0,14,-99.99,,,-99.99,,2013-04-24 10:53:00,
2013-04-24 04:02:00,43.0,-2.0,-100.00,NE,37,2.0,9.0,14,-99.99,,,-99.99,,2013-04-24 11:02:00,
2013-04-24 04:11:00,44.0,-2.0,-100.00,NE,51,4.0,17.0,14,-99.99,,,-99.99,,2013-04-24 11:11:00,
2013-04-24 04:21:00,44.0,-2.0,-100.00,NE,51,4.0,17.0,14,-99.99,,,-99.99,,2013-04-24 11:21:00,
2013-04-24 04:32:00,43.0,-3.0,-100.00,NE,38,5.0,17.0,14,-99.99,,,-99.99,,2013-04-24 11:32:00,
2013-04-24 04:52:00,43.0,-3.0,-100.00,NE,55,4.0,13.0,14,-99.99,,,-99.99,,2013-04-24 11:52:00,
2013-04-24 05:01:00,43.0,-3.0,-100.00,NE,55,4.0,13.0,14,-99.99,,,-99.99,,2013-04-24 12:01:00,
2013-04-24 05:11:00,42.0,-2.0,-100.00,ENE,69,6.0,15.0,15,-99.99,,,-99.99,,2013-04-24 12:11:00,
2013-04-24 05:22:00,42.0,-2.0,-100.00,ENE,69,6.0,15.0,15,-99.99,,,-99.99,,2013-04-24 12:22:00,
2013-04-24 05:32:00,41.0,-1.0,-100.00,ENE,68,5.0,14.0,16,-99.99,,,-99.99,,2013-04-24 12:32:00,
2013-04-24 05:52:00,41.0,0.0,-100.00,NE,56,5.0,14.0,17,-99.99,,,-99.99,,2013-04-24 12:52:00,
2013-04-24 06:01:00,41.0,0.0,-100.00,NE,56,5.0,14.0,17,-99.99,,,-99.99,,2013-04-24 13:01:00,
2013-04-24 06:12:00,41.0,-1.0,-100.00,NE,49,5.0,22.0,17,-99.99,,,-99.99,,2013-04-24 13:12:00,
2013-04-24 06:22:00,41.0,-1.0,-100.00,NE,49,5.0,22.0,17,-99.99,,,-99.99,,2013-04-24 13:22:00,
2013-04-24 06:41:00,41.0,-1.0,-100.00,NE,49,5.0,22.0,17,-99.99,,,-99.99,,2013-04-24 13:41:00,
2013-04-24 07:11:00,40.0,0.0,-100.00,NE,40,6.0,17.0,18,-99.99,,,-99.99,,2013-04-24 14:11:00,
2013-04-24 07:41:00,40.0,0.0,-100.00,NE,40,6.0,17.0,18,-99.99,,,-99.99,,2013-04-24 14:41:00,
2013-04-24 07:52:00,41.0,1.0,-100.00,NE,44,6.0,18.0,18,-99.99,,,-99.99,,2013-04-24 14:52:00,
2013-04-24 08:01:00,41.0,1.0,-100.00,NE,44,6.0,18.0,18,-99.99,,,-99.99,,2013-04-24 15:01:00,
2013-04-24 08:11:00,42.0,1.0,-100.00,NE,47,7.0,20.0,18,-99.99,,,-99.99,,2013-04-24 15:11:00,
2013-04-24 08:21:00,42.0,1.0,-100.00,NE,47,7.0,20.0,18,-99.99,,,-99.99,,2013-04-24 15:21:00,
2013-04-24 08:33:00,42.0,2.0,-100.00,NE,42,6.0,18.0,18,-99.99,,,-99.99,,2013-04-24 15:33:00,
2013-04-24 08:42:00,42.0,2.0,-100.00,NE,42,6.0,18.0,18,-99.99,,,-99.99,,2013-04-24 15:42:00,
2013-04-24 08:53:00,43.0,2.0,-100.00,NE,34,7.0,23.0,18,-99.99,,,-99.99,,2013-04-24 15:53:00,
2013-04-24 09:03:00,43.0,2.0,-100.00,NE,34,7.0,23.0,18,-99.99,,,-99.99,,2013-04-24 16:03:00,
2013-04-24 09:12:00,43.0,2.0,-100.00,NNE,30,10.0,28.0,18,-99.99,,,-99.99,,2013-04-24 16:12:00,
2013-04-24 09:23:00,43.0,2.0,-100.00,NNE,30,10.0,28.0,18,-99.99,,,-99.99,,2013-04-24 16:23:00,
2013-04-24 09:32:00,43.0,2.0,-100.00,NNE,30,10.0,28.0,18,-99.99,,,-99.99,,2013-04-24 16:32:00,
2013-04-24 09:42:00,43.0,2.0,-100.00,NNE,30,10.0,28.0,18,-99.99,,,-99.99,,2013-04-24 16:42:00,
2013-04-24 09:52:00,44.0,3.0,-100.00,NE,38,10.0,26.0,18,-99.99,,,-99.99,,2013-04-24 16:52:00,
2013-04-24 10:02:00,44.0,3.0,-100.00,NE,38,10.0,26.0,18,-99.99,,,-99.99,,2013-04-24 17:02:00,
2013-04-24 10:12:00,45.0,3.0,-100.00,NE,37,8.0,21.0,17,-99.99,,,-99.99,,2013-04-24 17:12:00,
2013-04-24 10:22:00,45.0,3.0,-100.00,NE,37,8.0,21.0,17,-99.99,,,-99.99,,2013-04-24 17:22:00,
2013-04-24 10:32:00,46.0,5.0,-100.00,NE,37,8.0,21.0,18,-99.99,,,-99.99,,2013-04-24 17:32:00,
2013-04-24 10:42:00,46.0,5.0,-100.00,NE,37,8.0,21.0,18,-99.99,,,-99.99,,2013-04-24 17:42:00,
2013-04-24 10:52:00,47.0,4.0,-100.00,NE,42,10.0,27.0,17,-99.99,,,-99.99,,2013-04-24 17:52:00,
2013-04-24 11:02:00,47.0,4.0,-100.00,NE,42,10.0,27.0,17,-99.99,,,-99.99,,2013-04-24 18:02:00,
2013-04-24 11:12:00,47.0,3.0,-100.00,NE,48,10.0,24.0,16,-99.99,,,-99.99,,2013-04-24 18:12:00,
2013-04-24 11:21:00,47.0,3.0,-100.00,NE,48,10.0,24.0,16,-99.99,,,-99.99,,2013-04-24 18:21:00,
2013-04-24 11:33:00,48.0,4.0,-100.00,NE,47,9.0,24.0,16,-99.99,,,-99.99,,2013-04-24 18:33:00,
2013-04-24 11:42:00,48.0,4.0,-100.00,NE,47,9.0,24.0,16,-99.99,,,-99.99,,2013-04-24 18:42:00,
2013-04-24 11:52:00,49.0,6.0,-100.00,NNE,31,9.0,27.0,17,-99.99,,,-99.99,,2013-04-24 18:52:00,
2013-04-24 12:01:00,49.0,6.0,-100.00,NNE,31,9.0,27.0,17,-99.99,,,-99.99,,2013-04-24 19:01:00,
2013-04-24 12:11:00,50.0,7.0,-100.00,NE,45,9.0,26.0,17,-99.99,,,-99.99,,2013-04-24 19:11:00,
2013-04-24 12:21:00,50.0,7.0,-100.00,NE,45,9.0,26.0,17,-99.99,,,-99.99,,2013-04-24 19:21:00,
2013-04-24 12:31:00,50.0,6.0,-100.00,NE,48,9.0,26.0,16,-99.99,,,-99.99,,2013-04-24 19:31:00,
2013-04-24 12:42:00,50.0,6.0,-100.00,NE,48,9.0,26.0,16,-99.99,,,-99.99,,2013-04-24 19:42:00,
2013-04-24 12:52:00,51.0,5.0,-100.00,ENE,61,8.0,22.0,15,-99.99,,,-99.99,,2013-04-24 19:52:00,
2013-04-24 13:01:00,51.0,5.0,-100.00,ENE,61,8.0,22.0,15,-99.99,,,-99.99,,2013-04-24 20:01:00,
2013-04-24 13:11:00,53.0,7.0,-100.00,NE,48,7.0,24.0,15,-99.99,,,-99.99,,2013-04-24 20:11:00,
2013-04-24 13:21:00,53.0,7.0,-100.00,NE,48,7.0,24.0,15,-99.99,,,-99.99,,2013-04-24 20:21:00,
2013-04-24 13:32:00,54.0,6.0,-100.00,NE,49,6.0,17.0,14,-99.99,,,-99.99,,2013-04-24 20:32:00,
2013-04-24 13:42:00,54.0,6.0,-100.00,NE,49,6.0,17.0,14,-99.99,,,-99.99,,2013-04-24 20:42:00,
2013-04-24 13:52:00,53.0,7.0,-100.00,NNE,30,8.0,18.0,15,-99.99,,,-99.99,,2013-04-24 20:52:00,
2013-04-24 14:02:00,53.0,7.0,-100.00,NNE,30,8.0,18.0,15,-99.99,,,-99.99,,2013-04-24 21:02:00,
2013-04-24 14:11:00,55.0,7.0,-100.00,NNE,20,4.0,15.0,14,-99.99,,,-99.99,,2013-04-24 21:11:00,
2013-04-24 14:21:00,55.0,7.0,-100.00,NNE,20,4.0,15.0,14,-99.99,,,-99.99,,2013-04-24 21:21:00,
2013-04-24 14:32:00,54.0,6.0,-100.00,NNE,20,8.0,21.0,14,-99.99,,,-99.99,,2013-04-24 21:32:00,
2013-04-24 14:42:00,54.0,6.0,-100.00,NNE,20,8.0,21.0,14,-99.99,,,-99.99,,2013-04-24 21:42:00,
2013-04-24 14:52:00,56.0,6.0,-100.00,NE,47,6.0,17.0,13,-99.99,,,-99.99,,2013-04-24 21:52:00,
2013-04-24 15:03:00,56.0,6.0,-100.00,NE,47,6.0,17.0,13,-99.99,,,-99.99,,2013-04-24 22:03:00,
2013-04-24 15:12:00,55.0,5.0,-100.00,NNE,14,7.0,22.0,13,-99.99,,,-99.99,,2013-04-24 22:12:00,
2013-04-24 15:22:00,55.0,5.0,-100.00,NNE,14,7.0,22.0,13,-99.99,,,-99.99,,2013-04-24 22:22:00,
2013-04-24 15:33:00,56.0,7.0,-100.00,NNE,23,8.0,20.0,14,-99.99,,,-99.99,,2013-04-24 22:33:00,
2013-04-24 15:42:00,56.0,7.0,-100.00,NNE,23,8.0,20.0,14,-99.99,,,-99.99,,2013-04-24 22:42:00,
2013-04-24 15:52:00,57.0,7.0,-100.00,NNE,31,6.0,18.0,13,-99.99,,,-99.99,,2013-04-24 22:52:00,
2013-04-24 16:02:00,57.0,7.0,-100.00,NNE,31,6.0,18.0,13,-99.99,,,-99.99,,2013-04-24 23:02:00,
2013-04-24 16:12:00,56.0,6.0,-100.00,North,10,7.0,16.0,13,-99.99,,,-99.99,,2013-04-24 23:12:00,
2013-04-24 16:21:00,56.0,6.0,-100.00,North,10,7.0,16.0,13,-99.99,,,-99.99,,2013-04-24 23:21:00,
2013-04-24 16:32:00,56.0,6.0,-100.00,NNE,27,7.0,19.0,13,-99.99,,,-99.99,,2013-04-24 23:32:00,
2013-04-24 16:42:00,56.0,6.0,-100.00,NNE,27,7.0,19.0,13,-99.99,,,-99.99,,2013-04-24 23:42:00,
2013-04-24 16:52:00,57.0,7.0,-100.00,ENE,69,7.0,17.0,13,-99.99,,,-99.99,,2013-04-24 23:52:00,
2013-04-24 17:01:00,57.0,7.0,-100.00,ENE,69,7.0,17.0,13,-99.99,,,-99.99,,2013-04-25 00:01:00,
2013-04-24 17:12:00,56.0,6.0,-100.00,NNE,23,7.0,16.0,13,-99.99,,,-99.99,,2013-04-25 00:12:00,
2013-04-24 17:22:00,56.0,6.0,-100.00,NNE,23,7.0,16.0,13,-99.99,,,-99.99,,2013-04-25 00:22:00,
2013-04-24 17:32:00,57.0,7.0,-100.00,North,7,6.0,18.0,13,-99.99,,,-99.99,,2013-04-25 00:32:00,
2013-04-24 17:41:00,57.0,7.0,-100.00,North,7,6.0,18.0,13,-99.99,,,-99.99,,2013-04-25 00:41:00,
2013-04-24 17:52:00,56.0,4.0,-100.00,NE,52,8.0,19.0,12,-99.99,,,-99.99,,2013-04-25 00:52:00,
2013-04-24 18:01:00,56.0,4.0,-100.00,NE,52,8.0,19.0,12,-99.99,,,-99.99,,2013-04-25 01:01:00,
2013-04-24 18:11:00,56.0,4.0,-100.00,NE,52,8.0,19.0,12,-99.99,,,-99.99,,2013-04-25 01:11:00,
2013-04-24 18:22:00,56.0,4.0,-100.00,NE,52,8.0,19.0,12,-99.99,,,-99.99,,2013-04-25 01:22:00,
2013-04-24 19:11:00,54.0,5.0,-100.00,NNE,14,7.0,16.0,13,-99.99,,,-99.99,,2013-04-25 02:11:00,
2013-04-24 19:22:00,54.0,5.0,-100.00,NNE,14,7.0,16.0,13,-99.99,,,-99.99,,2013-04-25 02:22:00,
2013-04-24 19:32:00,54.0,4.0,-100.00,NNE,20,5.0,16.0,13,-99.99,,,-99.99,,2013-04-25 02:32:00,
2013-04-24 19:42:00,54.0,4.0,-100.00,NNE,20,5.0,16.0,13,-99.99,,,-99.99,,2013-04-25 02:42:00,
2013-04-24 19:51:00,54.0,4.0,-100.00,NNE,20,5.0,16.0,13,-99.99,,,-99.99,,2013-04-25 02:51:00,
2013-04-24 20:02:00,53.0,4.0,-100.00,NE,48,5.0,12.0,13,-99.99,,,-99.99,,2013-04-25 03:02:00,
2013-04-24 20:11:00,52.0,4.0,-100.00,NNE,27,4.0,10.0,14,-99.99,,,-99.99,,2013-04-25 03:11:00,
2013-04-24 20:22:00,52.0,4.0,-100.00,NNE,27,4.0,10.0,14,-99.99,,,-99.99,,2013-04-25 03:22:00,
2013-04-24 20:33:00,52.0,4.0,-100.00,NNE,27,4.0,10.0,14,-99.99,,,-99.99,,2013-04-25 03:33:00,
2013-04-24 20:42:00,52.0,4.0,-100.00,NNE,27,4.0,10.0,14,-99.99,,,-99.99,,2013-04-25 03:42:00,
2013-04-24 21:12:00,50.0,3.0,-100.00,NE,40,3.0,9.0,14,-99.99,,,-99.99,,2013-04-25 04:12:00,
2013-04-24 21:22:00,50.0,3.0,-100.00,NE,40,3.0,9.0,14,-99.99,,,-99.99,,2013-04-25 04:22:00,
2013-04-24 21:32:00,50.0,3.0,-100.00,NE,40,3.0,9.0,14,-99.99,,,-99.99,,2013-04-25 04:32:00,
2013-04-24 21:43:00,50.0,3.0,-100.00,NE,40,3.0,9.0,14,-99.99,,,-99.99,,2013-04-25 04:43:00,
2013-04-24 22:12:00,50.0,3.0,-100.00,NE,48,4.0,12.0,14,-99.99,,,-99.99,,2013-04-25 05:12:00,
2013-04-24 22:21:00,50.0,3.0,-100.00,NE,48,4.0,12.0,14,-99.99,,,-99.99,,2013-04-25 05:21:00,
2013-04-24 22:32:00,50.0,2.0,-100.00,NE,47,2.0,9.0,14,-99.99,,,-99.99,,2013-04-25 05:32:00,
2013-04-24 22:52:00,49.0,2.0,-100.00,East,86,3.0,9.0,14,-99.99,,,-99.99,,2013-04-25 05:52:00,
2013-04-24 23:01:00,49.0,2.0,-100.00,East,86,3.0,9.0,14,-99.99,,,-99.99,,2013-04-25 06:01:00,
2013-04-24 23:11:00,49.0,2.0,-100.00,East,86,3.0,9.0,14,-99.99,,,-99.99,,2013-04-25 06:11:00,
2013-04-24 23:22:00,49.0,2.0,-100.00,East,86,3.0,9.0,14,-99.99,,,-99.99,,2013-04-25 06:22:00,